Oak Valley, New Jersey
Current Conditions -  °F | °C
As of 7:54 AM on Sunday 21 Dec 2014 (Local Time) from KPHL Reporting Station
Broken Clouds Broken Clouds  
Wind Chill: 27°   Ceiling: 8500
Heat Index: 32°   Visibility: 10mi
Dew Point: 21°   Wind: 5mph
Humidity: 64%   Direction: 310°NW
Pressure: 30.34"   Gusts: NA
Location:  39.7966°N, 75.1429°W
Report Text: KPHL 211254Z 31004KT 10SM FEW030 BKN085 BKN110 00/M06 A3034 RMK AO2 SLP272 T00001061
Loading
Personal Weather Stations






























Interactive Weather Map New forecast layout! Learn more

10-Day Weather Forecast

Advertisements
Track Severe Weather on mobile